createdAt,value
2022-12-12T00:01:55.683Z,3.70
2022-12-12T00:04:23.582Z,4.63
2022-12-12T00:06:51.500Z,4.20
2022-12-12T00:09:20.729Z,3.73
2022-12-12T00:11:48.610Z,4.33
2022-12-12T00:14:16.492Z,4.40
2022-12-12T00:16:44.431Z,4.67
2022-12-12T00:19:12.408Z,5.03
2022-12-12T00:21:40.288Z,4.27
2022-12-12T00:24:08.929Z,4.47
2022-12-12T00:26:38.309Z,3.90
2022-12-12T00:29:07.175Z,4.27
2022-12-12T00:31:35.340Z,3.87
2022-12-12T00:34:03.353Z,4.80
2022-12-12T00:36:32.572Z,4.43
2022-12-12T00:39:00.997Z,4.57
2022-12-12T00:41:29.526Z,5.10
2022-12-12T00:43:58.759Z,4.07
2022-12-12T00:46:27.087Z,4.87
2022-12-12T00:48:57.237Z,5.30
2022-12-12T00:51:26.797Z,5.30
2022-12-12T00:53:54.835Z,4.60
2022-12-12T00:56:23.948Z,4.73
2022-12-12T00:58:52.349Z,5.03
2022-12-12T01:01:24.215Z,5.50
2022-12-12T01:03:53.730Z,5.33
2022-12-12T01:06:22.149Z,5.60
2022-12-12T01:08:50.256Z,6.17
2022-12-12T01:11:19.044Z,7.33
2022-12-12T01:13:48.739Z,6.43
2022-12-12T01:16:16.795Z,7.10
2022-12-12T01:18:46.108Z,7.03
2022-12-12T01:21:16.059Z,6.70
2022-12-12T01:23:44.783Z,8.30
2022-12-12T01:26:14.846Z,7.93
2022-12-12T01:28:43.607Z,7.47
2022-12-12T01:31:12.078Z,7.23
2022-12-12T01:33:40.061Z,7.80
2022-12-12T01:36:09.645Z,7.80
2022-12-12T01:38:37.888Z,7.53
2022-12-12T01:41:06.081Z,8.70
2022-12-12T01:43:33.984Z,7.07
2022-12-12T01:46:40.133Z,7.97
2022-12-12T01:49:17.936Z,6.70
2022-12-12T01:51:48.916Z,7.70
2022-12-12T01:54:20.852Z,7.40
2022-12-12T01:56:50.440Z,7.50
2022-12-12T01:59:22.109Z,7.53
2022-12-12T02:01:50.461Z,7.90
2022-12-12T02:04:19.392Z,7.60
2022-12-12T02:06:50.171Z,8.10
2022-12-12T02:09:18.805Z,7.73
2022-12-12T02:11:49.376Z,7.97
2022-12-12T02:14:21.632Z,7.10
2022-12-12T02:17:22.833Z,7.50
2022-12-12T02:20:28.827Z,7.73
2022-12-12T02:23:19.752Z,8.07
2022-12-12T02:26:10.210Z,7.73
2022-12-12T02:28:59.857Z,6.70
2022-12-12T02:31:34.221Z,7.23
2022-12-12T02:34:08.426Z,6.80
2022-12-12T02:36:43.265Z,7.33
2022-12-12T02:39:18.189Z,5.87
2022-12-12T02:41:52.271Z,7.03
2022-12-12T02:44:26.997Z,7.43
2022-12-12T02:47:02.443Z,7.07
2022-12-12T02:49:34.031Z,8.17
2022-12-12T02:52:03.076Z,7.57
2022-12-12T02:54:30.998Z,8.17
2022-12-12T02:57:00.601Z,8.40
2022-12-12T02:59:32.418Z,8.40
2022-12-12T03:02:41.973Z,9.27
2022-12-12T03:05:42.152Z,7.77
2022-12-12T03:08:18.764Z,8.97
2022-12-12T03:10:56.320Z,8.23
2022-12-12T03:13:33.193Z,8.57
2022-12-12T03:16:14.428Z,10.30
2022-12-12T03:18:56.883Z,10.00
2022-12-12T03:21:31.903Z,9.70
2022-12-12T03:24:06.904Z,10.33
2022-12-12T03:26:43.285Z,11.07
2022-12-12T03:29:14.832Z,10.97
2022-12-12T03:31:48.390Z,10.30
2022-12-12T03:34:20.738Z,10.80
2022-12-12T03:36:52.932Z,10.60
2022-12-12T03:39:26.301Z,10.90
2022-12-12T03:42:00.900Z,10.80
2022-12-12T03:44:38.132Z,10.63
2022-12-12T03:47:13.678Z,10.50
2022-12-12T03:49:47.824Z,10.47
2022-12-12T03:52:22.349Z,9.20
2022-12-12T03:54:54.825Z,9.43
2022-12-12T03:57:28.261Z,9.67
2022-12-12T04:00:00.142Z,10.80
2022-12-12T04:02:34.009Z,10.03
2022-12-12T04:05:14.974Z,9.87
2022-12-12T04:07:46.106Z,8.40
2022-12-12T04:10:31.332Z,9.40
2022-12-12T04:13:09.280Z,8.77
2022-12-12T04:15:57.142Z,9.30
2022-12-12T04:18:36.050Z,10.20
2022-12-12T04:21:38.794Z,9.80
2022-12-12T04:24:18.292Z,8.77
2022-12-12T04:26:50.278Z,9.07
2022-12-12T04:29:30.839Z,9.07
2022-12-12T04:32:06.837Z,8.90
2022-12-12T04:34:41.769Z,10.60
2022-12-12T04:37:16.868Z,9.00
2022-12-12T04:39:46.997Z,8.93
2022-12-12T04:42:18.051Z,8.50
2022-12-12T04:44:47.746Z,10.07
2022-12-12T04:47:16.858Z,9.43
2022-12-12T04:49:47.762Z,8.97
2022-12-12T04:52:20.401Z,9.23
2022-12-12T04:54:52.348Z,9.27
2022-12-12T04:57:25.463Z,9.07
2022-12-12T04:59:53.536Z,10.07
2022-12-12T05:02:31.689Z,10.63
2022-12-12T05:05:03.762Z,10.60
2022-12-12T05:07:40.003Z,7.67
2022-12-12T05:10:11.774Z,9.20
2022-12-12T05:12:45.756Z,9.30
2022-12-12T05:15:14.689Z,10.00
2022-12-12T05:17:46.688Z,10.50
2022-12-12T05:20:14.963Z,9.40
2022-12-12T05:22:44.352Z,9.50
2022-12-12T05:25:13.926Z,12.23
2022-12-12T05:27:42.203Z,10.53
2022-12-12T05:30:11.598Z,9.57
2022-12-12T05:32:39.461Z,10.57
2022-12-12T05:35:09.104Z,10.13
2022-12-12T05:37:37.211Z,10.37
2022-12-12T05:40:09.378Z,10.70
2022-12-12T05:42:37.235Z,9.50
2022-12-12T05:45:06.336Z,9.10
2022-12-12T05:47:34.263Z,10.40
2022-12-12T05:50:02.112Z,9.77
2022-12-12T05:52:29.985Z,9.90
2022-12-12T05:54:57.875Z,10.37
2022-12-12T05:57:27.127Z,9.70
2022-12-12T05:59:54.995Z,8.87
2022-12-12T06:02:22.872Z,9.23
2022-12-12T06:04:50.791Z,10.20
2022-12-12T06:07:18.718Z,9.70
2022-12-12T06:09:46.629Z,9.47
2022-12-12T06:12:14.516Z,10.10
2022-12-12T06:14:43.824Z,9.63
2022-12-12T06:17:11.691Z,8.30
2022-12-12T06:19:39.571Z,9.00
2022-12-12T06:22:07.481Z,8.10
2022-12-12T06:24:35.376Z,8.43
2022-12-12T06:27:03.266Z,9.17
2022-12-12T06:29:31.316Z,9.70
2022-12-12T06:32:00.526Z,9.07
2022-12-12T06:34:28.459Z,8.67
2022-12-12T06:36:56.542Z,8.53
2022-12-12T06:39:24.432Z,6.93
2022-12-12T06:41:52.338Z,7.30
2022-12-12T06:44:20.189Z,7.60
2022-12-12T06:46:48.036Z,8.60
2022-12-12T06:49:17.271Z,7.57
2022-12-12T06:51:45.199Z,8.47
2022-12-12T06:54:13.920Z,8.80
2022-12-12T06:56:47.679Z,8.57
2022-12-12T06:59:16.961Z,7.83
2022-12-12T07:01:45.483Z,8.57
2022-12-12T07:04:14.337Z,8.30
2022-12-12T07:06:44.002Z,9.30
2022-12-12T07:09:12.047Z,8.07
2022-12-12T07:11:41.231Z,9.20
2022-12-12T07:14:09.425Z,8.17
2022-12-12T07:16:37.302Z,9.83
2022-12-12T07:19:06.004Z,9.40
2022-12-12T07:21:34.089Z,9.50
2022-12-12T07:24:03.321Z,10.27
2022-12-12T07:26:31.240Z,10.23
2022-12-12T07:28:59.115Z,10.20
2022-12-12T07:31:27.076Z,10.43
2022-12-12T07:33:55.377Z,9.47
2022-12-12T07:36:23.497Z,9.73
2022-12-12T07:38:52.037Z,8.60
2022-12-12T07:41:21.607Z,9.07
2022-12-12T07:43:50.965Z,8.90
2022-12-12T07:46:21.437Z,8.97
2022-12-12T07:48:51.796Z,8.93
2022-12-12T07:51:21.126Z,8.20
2022-12-12T07:53:49.142Z,8.10
2022-12-12T07:56:18.332Z,8.80
2022-12-12T07:58:47.541Z,8.80
2022-12-12T08:01:17.752Z,9.23
2022-12-12T08:03:47.137Z,9.10
2022-12-12T08:06:16.817Z,9.90
2022-12-12T08:08:44.893Z,10.33
2022-12-12T08:11:15.304Z,9.43
2022-12-12T08:13:43.793Z,10.00
2022-12-12T08:16:17.019Z,8.60
2022-12-12T08:18:45.125Z,10.37
2022-12-12T08:21:17.569Z,9.57
2022-12-12T08:23:49.262Z,8.80
2022-12-12T08:26:19.114Z,8.73
2022-12-12T08:28:49.190Z,8.63
2022-12-12T08:31:20.363Z,9.20
2022-12-12T08:33:50.570Z,9.30
2022-12-12T08:36:20.971Z,8.90
2022-12-12T08:38:49.490Z,7.90
2022-12-12T08:41:18.370Z,7.50
2022-12-12T08:43:46.685Z,7.90
2022-12-12T08:46:18.117Z,6.53
2022-12-12T08:48:48.529Z,7.00
2022-12-12T08:51:17.536Z,8.20
2022-12-12T08:53:45.842Z,8.27
2022-12-12T08:56:14.135Z,7.37
2022-12-12T08:58:42.032Z,6.80
2022-12-12T09:01:12.447Z,7.70
2022-12-12T09:03:40.594Z,6.63
2022-12-12T09:06:11.175Z,6.70
2022-12-12T09:08:39.742Z,7.97
2022-12-12T09:11:08.474Z,8.00
2022-12-12T09:13:36.485Z,8.20
2022-12-12T09:16:05.078Z,7.20
2022-12-12T09:18:33.157Z,7.27
2022-12-12T09:21:01.065Z,7.93
2022-12-12T09:23:30.340Z,8.33
2022-12-12T09:25:58.745Z,7.33
2022-12-12T09:28:27.656Z,6.97
2022-12-12T09:30:55.769Z,7.70
2022-12-12T09:33:23.666Z,7.53
2022-12-12T09:35:58.569Z,7.57
2022-12-12T09:38:27.161Z,7.77
2022-12-12T09:40:59.105Z,7.73
2022-12-12T09:43:30.142Z,8.87
2022-12-12T09:45:59.005Z,9.30
2022-12-12T09:48:32.002Z,8.57
2022-12-12T09:50:59.904Z,8.80
2022-12-12T09:53:28.262Z,9.23
2022-12-12T09:56:06.420Z,8.33
2022-12-12T09:58:46.402Z,8.87
2022-12-12T10:01:24.715Z,9.93
2022-12-12T10:04:04.281Z,9.03
2022-12-12T10:06:39.767Z,8.60
2022-12-12T10:09:23.057Z,8.37
2022-12-12T10:11:55.339Z,10.27
2022-12-12T10:14:28.952Z,10.60
2022-12-12T10:16:58.655Z,9.53
2022-12-12T10:19:29.625Z,10.17
2022-12-12T10:22:03.229Z,10.53
2022-12-12T10:24:37.778Z,10.33
2022-12-12T10:27:12.599Z,10.17
2022-12-12T10:29:42.612Z,10.20
2022-12-12T10:32:21.809Z,10.87
2022-12-12T10:35:03.828Z,9.87
2022-12-12T10:37:39.146Z,10.03
2022-12-12T10:40:22.441Z,10.10
2022-12-12T10:42:58.051Z,11.17
2022-12-12T10:45:54.817Z,8.73
2022-12-12T10:48:22.787Z,10.67
2022-12-12T10:50:53.898Z,10.10
2022-12-12T10:53:23.116Z,11.13
2022-12-12T10:55:55.247Z,8.50
2022-12-12T10:58:28.218Z,10.67
2022-12-12T11:01:03.317Z,8.47
2022-12-12T11:03:36.298Z,9.37
2022-12-12T11:06:07.345Z,8.57
2022-12-12T11:08:37.135Z,8.00
2022-12-12T11:11:08.917Z,8.17
2022-12-12T11:13:46.500Z,8.90
2022-12-12T11:16:18.001Z,7.87
2022-12-12T11:19:00.198Z,7.50
2022-12-12T11:21:29.596Z,7.53
2022-12-12T11:23:59.084Z,9.13
2022-12-12T11:26:29.049Z,9.47
2022-12-12T11:29:01.229Z,8.90
2022-12-12T11:31:32.218Z,7.63
2022-12-12T11:34:03.032Z,7.80
2022-12-12T11:36:35.124Z,7.97
2022-12-12T11:39:14.020Z,8.57
2022-12-12T11:42:01.309Z,9.40
2022-12-12T11:44:35.312Z,9.00
2022-12-12T11:47:22.794Z,10.73
2022-12-12T11:49:52.291Z,10.07
2022-12-12T11:52:22.530Z,11.63
2022-12-12T11:54:50.402Z,13.67
2022-12-12T11:57:33.250Z,10.53
2022-12-12T12:00:12.418Z,9.93
2022-12-12T12:03:28.494Z,10.20
2022-12-12T12:06:12.901Z,9.63
2022-12-12T12:08:54.463Z,8.80
2022-12-12T12:11:26.303Z,10.17
2022-12-12T12:14:14.398Z,9.77
2022-12-12T12:16:52.990Z,9.60
2022-12-12T12:19:28.461Z,10.97
2022-12-12T12:22:03.266Z,9.07
2022-12-12T12:24:52.477Z,8.80
2022-12-12T12:27:26.728Z,9.40
2022-12-12T12:30:14.234Z,9.53
2022-12-12T12:32:59.372Z,10.60
2022-12-12T12:35:30.934Z,9.83
2022-12-12T12:38:14.497Z,10.30
2022-12-12T12:41:00.401Z,12.00
2022-12-12T12:43:44.873Z,9.13
2022-12-12T12:46:18.244Z,10.40
2022-12-12T12:48:51.640Z,10.23
2022-12-12T12:51:22.747Z,10.40
2022-12-12T12:53:56.715Z,10.20
2022-12-12T12:56:27.559Z,11.87
2022-12-12T12:58:59.102Z,10.53
2022-12-12T13:01:32.030Z,9.77
2022-12-12T13:04:09.016Z,10.30
2022-12-12T13:06:43.423Z,10.37
2022-12-12T13:09:24.994Z,10.67
2022-12-12T13:11:56.664Z,9.80
2022-12-12T13:14:36.717Z,12.20
2022-12-12T13:17:06.877Z,10.97
2022-12-12T13:19:40.336Z,10.50
2022-12-12T13:22:14.873Z,10.67
2022-12-12T13:24:48.220Z,9.67
2022-12-12T13:27:21.771Z,11.70
2022-12-12T13:29:53.768Z,12.43
2022-12-12T13:32:48.021Z,11.10
2022-12-12T13:35:25.476Z,10.03
2022-12-12T13:37:55.533Z,11.53
2022-12-12T13:40:27.980Z,12.37
2022-12-12T13:43:02.666Z,12.00
2022-12-12T13:45:42.812Z,12.30
2022-12-12T13:48:46.023Z,11.73
2022-12-12T13:51:40.721Z,13.80
2022-12-12T13:54:50.988Z,12.73
2022-12-12T13:57:32.598Z,12.93
2022-12-12T14:00:18.791Z,13.37
2022-12-12T14:03:01.061Z,11.47
2022-12-12T14:05:32.567Z,11.40
2022-12-12T14:08:09.139Z,12.40
2022-12-12T14:10:42.089Z,15.10
2022-12-12T14:13:27.988Z,13.80
2022-12-12T14:16:07.630Z,13.40
2022-12-12T14:18:40.055Z,12.50
2022-12-12T14:21:11.104Z,12.93
2022-12-12T14:23:42.522Z,14.50
2022-12-12T14:26:48.728Z,13.50
2022-12-12T14:29:28.132Z,13.50
2022-12-12T14:32:08.462Z,14.00
2022-12-12T14:34:47.172Z,15.40
2022-12-12T14:37:39.626Z,16.37
2022-12-12T14:40:19.621Z,15.43
2022-12-12T14:43:19.998Z,11.40
2022-12-12T14:45:42.552Z,12.07
2022-12-12T14:48:19.438Z,11.60
2022-12-12T14:51:01.866Z,12.20
2022-12-12T14:53:34.761Z,12.50
2022-12-12T14:56:09.278Z,12.07
2022-12-12T14:58:40.741Z,12.90
2022-12-12T15:01:08.938Z,13.07
2022-12-12T15:03:42.726Z,12.10
2022-12-12T15:06:21.475Z,11.73
2022-12-12T15:08:49.483Z,11.53
2022-12-12T15:11:22.959Z,12.60
2022-12-12T15:13:52.856Z,15.13
2022-12-12T15:16:26.443Z,13.27
2022-12-12T15:18:55.482Z,15.00
2022-12-12T15:21:23.366Z,13.90
2022-12-12T15:23:51.300Z,12.83
2022-12-12T15:26:23.641Z,13.70
2022-12-12T15:28:51.523Z,13.73
2022-12-12T15:31:20.323Z,12.80
2022-12-12T15:33:49.579Z,14.23
2022-12-12T15:36:20.891Z,13.83
2022-12-12T15:39:13.945Z,12.87
2022-12-12T15:41:44.257Z,11.70
2022-12-12T15:44:18.266Z,11.83
2022-12-12T15:46:48.542Z,13.53
2022-12-12T15:49:42.751Z,12.60
2022-12-12T15:52:20.770Z,11.87
2022-12-12T15:54:51.132Z,14.80
2022-12-12T15:57:22.943Z,13.53
2022-12-12T15:59:56.231Z,12.43
2022-12-12T16:02:29.229Z,11.93
2022-12-12T16:05:02.289Z,12.17
2022-12-12T16:07:36.375Z,13.20
2022-12-12T16:10:20.909Z,13.30
2022-12-12T16:13:01.857Z,12.60
2022-12-12T16:15:38.011Z,13.47
2022-12-12T16:18:15.324Z,12.53
2022-12-12T16:20:47.788Z,13.20
2022-12-12T16:23:27.605Z,13.73
2022-12-12T16:25:55.926Z,15.50
2022-12-12T16:28:26.586Z,16.10
2022-12-12T16:30:57.500Z,14.93
2022-12-12T16:33:29.903Z,13.80
2022-12-12T16:36:00.094Z,14.47
2022-12-12T16:38:29.238Z,14.40
2022-12-12T16:40:59.998Z,12.33
2022-12-12T16:43:29.457Z,13.57
2022-12-12T16:45:58.777Z,14.70
2022-12-12T16:48:28.524Z,12.90
2022-12-12T16:50:59.126Z,13.10
2022-12-12T16:53:27.150Z,13.90
2022-12-12T16:55:55.616Z,11.40
2022-12-12T16:58:23.589Z,12.90
2022-12-12T17:00:54.139Z,13.20
2022-12-12T17:03:23.395Z,13.90
2022-12-12T17:05:52.167Z,13.53
2022-12-12T17:08:21.589Z,13.17
2022-12-12T17:10:50.918Z,13.40
2022-12-12T17:13:20.635Z,14.90
2022-12-12T17:15:48.497Z,15.10
2022-12-12T17:18:17.762Z,15.67
2022-12-12T17:20:46.380Z,15.53
2022-12-12T17:23:28.580Z,14.70
2022-12-12T17:26:02.985Z,14.57
2022-12-12T17:28:33.582Z,16.47
2022-12-12T17:31:01.951Z,14.70
2022-12-12T17:33:31.214Z,16.00
2022-12-12T17:36:00.926Z,15.07
2022-12-12T17:38:30.293Z,16.37
2022-12-12T17:40:58.514Z,15.30
2022-12-12T17:43:27.132Z,14.03
2022-12-12T17:45:59.585Z,15.23
2022-12-12T17:48:30.057Z,15.90
2022-12-12T17:51:00.642Z,16.27
2022-12-12T17:53:32.117Z,15.73
2022-12-12T17:56:01.068Z,16.30
2022-12-12T17:58:32.913Z,14.20
2022-12-12T18:01:01.702Z,14.40
2022-12-12T18:03:30.522Z,15.33
2022-12-12T18:06:02.654Z,14.27
2022-12-12T18:08:30.626Z,15.47
2022-12-12T18:10:58.524Z,16.30
2022-12-12T18:13:26.894Z,15.63
2022-12-12T18:15:56.147Z,15.57
2022-12-12T18:18:24.322Z,15.23
2022-12-12T18:20:52.500Z,15.97
2022-12-12T18:23:21.768Z,15.37
2022-12-12T18:25:49.637Z,16.10
2022-12-12T18:28:17.485Z,15.93
2022-12-12T18:30:45.303Z,16.40
2022-12-12T18:33:13.123Z,17.10
2022-12-12T18:35:40.944Z,17.23
2022-12-12T18:38:08.787Z,14.80
2022-12-12T18:40:39.172Z,14.60
2022-12-12T18:43:07.349Z,16.80
2022-12-12T18:45:37.498Z,15.00
2022-12-12T18:48:05.708Z,15.30
2022-12-12T18:50:34.552Z,15.30
2022-12-12T18:53:02.395Z,16.67
2022-12-12T18:55:30.812Z,16.70
2022-12-12T18:58:00.979Z,17.27
2022-12-12T19:00:28.898Z,16.80
2022-12-12T19:02:56.743Z,17.10
2022-12-12T19:05:24.585Z,16.60
2022-12-12T19:07:52.605Z,16.73
2022-12-12T19:10:20.632Z,16.97
2022-12-12T19:12:48.491Z,17.07
2022-12-12T19:15:18.238Z,16.43
2022-12-12T19:17:46.269Z,16.20
2022-12-12T19:20:14.471Z,14.23
2022-12-12T19:22:46.586Z,15.50
2022-12-12T19:25:15.146Z,15.40
2022-12-12T19:27:43.021Z,16.47
2022-12-12T19:30:12.653Z,18.07
2022-12-12T19:32:42.190Z,17.13
2022-12-12T19:35:10.834Z,15.67
2022-12-12T19:37:38.685Z,14.47
2022-12-12T19:40:07.664Z,14.47
2022-12-12T19:42:35.510Z,14.73
2022-12-12T19:45:04.364Z,12.70
2022-12-12T19:47:33.348Z,14.43
2022-12-12T19:50:02.600Z,13.23
2022-12-12T19:52:30.467Z,13.83
2022-12-12T19:54:58.329Z,14.43
2022-12-12T19:57:26.434Z,14.17
2022-12-12T19:59:54.371Z,15.07
2022-12-12T20:02:22.288Z,15.20
2022-12-12T20:04:50.248Z,15.77
2022-12-12T20:07:19.467Z,15.47
2022-12-12T20:09:47.283Z,15.43
2022-12-12T20:12:15.150Z,16.00
2022-12-12T20:14:43.012Z,15.67
2022-12-12T20:17:10.882Z,15.70
2022-12-12T20:19:39.140Z,16.00
2022-12-12T20:22:06.998Z,16.30
2022-12-12T20:24:37.360Z,16.47
2022-12-12T20:27:05.578Z,15.80
2022-12-12T20:29:33.662Z,15.80
2022-12-12T20:32:01.870Z,14.17
2022-12-12T20:34:30.241Z,16.87
2022-12-12T20:36:58.625Z,16.03
2022-12-12T20:39:26.556Z,16.00
2022-12-12T20:41:56.909Z,15.67
2022-12-12T20:44:25.513Z,15.50
2022-12-12T20:46:54.040Z,17.17
2022-12-12T20:49:24.631Z,15.97
2022-12-12T20:51:57.734Z,13.97
2022-12-12T20:54:28.018Z,14.90
2022-12-12T20:56:58.216Z,16.30
2022-12-12T20:59:26.239Z,15.50
2022-12-12T21:01:54.470Z,14.47
2022-12-12T21:04:24.069Z,17.70
2022-12-12T21:06:52.239Z,14.57
2022-12-12T21:09:25.595Z,16.50
2022-12-12T21:11:55.375Z,16.33
2022-12-12T21:14:25.193Z,16.43
2022-12-12T21:16:53.590Z,17.17
2022-12-12T21:19:23.147Z,17.90
2022-12-12T21:21:51.494Z,17.03
2022-12-12T21:24:19.810Z,17.07
2022-12-12T21:26:48.055Z,18.23
2022-12-12T21:29:17.051Z,17.27
2022-12-12T21:31:51.707Z,17.67
2022-12-12T21:34:21.028Z,17.47
2022-12-12T21:36:51.914Z,17.10
2022-12-12T21:39:20.241Z,16.20
2022-12-12T21:41:48.097Z,16.20
2022-12-12T21:44:16.020Z,17.30
2022-12-12T21:46:44.226Z,17.60
2022-12-12T21:49:30.683Z,17.17
2022-12-12T21:52:00.083Z,17.80
2022-12-12T21:54:29.699Z,17.83
2022-12-12T21:56:58.484Z,18.30
2022-12-12T21:59:27.411Z,17.43
2022-12-12T22:01:56.385Z,17.30
2022-12-12T22:04:26.406Z,17.80
2022-12-12T22:06:54.264Z,17.10
2022-12-12T22:09:22.218Z,17.40
2022-12-12T22:11:50.483Z,16.00
2022-12-12T22:14:19.800Z,14.80
2022-12-12T22:16:47.717Z,15.90
2022-12-12T22:19:17.082Z,14.47
2022-12-12T22:21:47.593Z,14.87
2022-12-12T22:24:15.747Z,15.30
2022-12-12T22:26:45.432Z,15.67
2022-12-12T22:29:16.369Z,14.23
2022-12-12T22:31:45.627Z,14.80
2022-12-12T22:34:15.843Z,14.10
2022-12-12T22:36:44.703Z,14.70
2022-12-12T22:39:15.544Z,14.87
2022-12-12T22:41:43.388Z,13.90
2022-12-12T22:44:15.603Z,14.50
2022-12-12T22:46:44.595Z,15.43
2022-12-12T22:49:13.753Z,16.27
2022-12-12T22:51:42.407Z,16.27
2022-12-12T22:54:10.297Z,15.27
2022-12-12T22:56:40.988Z,16.33
2022-12-12T22:59:10.964Z,15.63
2022-12-12T23:01:38.812Z,14.70
2022-12-12T23:04:07.154Z,15.60
2022-12-12T23:06:36.404Z,15.70
2022-12-12T23:09:06.979Z,15.70
2022-12-12T23:11:36.564Z,15.40
2022-12-12T23:14:07.515Z,15.83
2022-12-12T23:16:36.313Z,16.17
2022-12-12T23:19:06.088Z,16.10
2022-12-12T23:21:35.745Z,16.87
2022-12-12T23:24:04.178Z,15.47
2022-12-12T23:26:36.538Z,16.80
2022-12-12T23:29:09.027Z,15.77
2022-12-12T23:31:38.883Z,14.70
2022-12-12T23:34:08.796Z,15.23
2022-12-12T23:36:38.075Z,16.73
2022-12-12T23:39:08.447Z,16.10
2022-12-12T23:41:37.072Z,16.40
2022-12-12T23:44:07.518Z,16.23
2022-12-12T23:46:36.312Z,15.60
2022-12-12T23:49:06.903Z,15.43
2022-12-12T23:51:37.506Z,15.07
2022-12-12T23:54:08.091Z,15.37
2022-12-12T23:56:36.737Z,16.77
2022-12-12T23:59:06.720Z,16.10
